首页
METAR-TAF:

METAR-TAF

机场 :

科威特國際機場

科威特, 科威特

纬度: 29-13N, 经度: 047-59E, 海拔: 55米

当前天气观测

该预报发布于21分钟前的10:00 UTC
风速4节,风向西
温度 38°C
湿度 20%
气压 1012 hPa
能见度10公里或以上
1500米以下无云,无积雨云

METAR: OKBK 191000Z 28004KT CAVOK 38/11 Q1012 NOSIG

时间: 13:21 (10:21 UTC)

预报

该预报发布于5小时和36分钟前的04:45 UTC
预报有效从19日的 06点(UTC)到 20日的 12点(UTC)
风速12节,风向北转西北
能見度: 7000
短暂存在
从 19日的 06点(UTC)到 19日的 09点(UTC)
风速3节,风向多变

TAF: OKBK 190445Z 1906/2012 34012KT 7000 NSC TEMPO 1906/1909 VRB03KT

超过4000个机场的气象观测和天气预报(METAR&TAF报告)。

可查询的气象台以黄色和红色小点在地图上表示。

将鼠标移到小点上方,可查看气象台名称。

然后点击查看天气观测和预报。

如需切换地图:点击带黑十字的绿色按钮放大地图;点击带横线的绿色按钮缩小地图;或者点击绿色箭头查看邻近地区的地图。


METAR-TAF: